sensor_id;sensor_type;location;lat;lon;timestamp;pressure;altitude;pressure_sealevel;temperature;humidity
77041;BME280;65974;42.664;23.264;2024-01-27T00:01:44;94832.19;;;3.28;62.40
77041;BME280;65974;42.664;23.264;2024-01-27T00:04:10;94815.03;;;3.22;61.87
77041;BME280;65974;42.664;23.264;2024-01-27T00:06:35;94816.91;;;3.22;61.63
77041;BME280;65974;42.664;23.264;2024-01-27T00:09:02;94818.91;;;3.25;61.92
77041;BME280;65974;42.664;23.264;2024-01-27T00:11:27;94827.91;;;3.24;61.60
77041;BME280;65974;42.664;23.264;2024-01-27T00:13:53;94826.53;;;3.17;62.24
77041;BME280;65974;42.664;23.264;2024-01-27T00:16:18;94824.88;;;3.13;61.50
77041;BME280;65974;42.664;23.264;2024-01-27T00:18:45;94814.34;;;3.13;61.72
77041;BME280;65974;42.664;23.264;2024-01-27T00:21:13;94812.19;;;3.15;62.25
77041;BME280;65974;42.664;23.264;2024-01-27T00:23:38;94804.97;;;3.24;60.50
77041;BME280;65974;42.664;23.264;2024-01-27T00:26:04;94803.94;;;3.37;60.43
77041;BME280;65974;42.664;23.264;2024-01-27T00:28:30;94807.69;;;3.36;60.14
77041;BME280;65974;42.664;23.264;2024-01-27T00:30:55;94811.50;;;3.39;59.56
77041;BME280;65974;42.664;23.264;2024-01-27T00:33:22;94810.59;;;3.35;60.54
77041;BME280;65974;42.664;23.264;2024-01-27T00:35:48;94809.59;;;3.27;60.55
77041;BME280;65974;42.664;23.264;2024-01-27T00:38:14;94802.41;;;3.36;60.66
77041;BME280;65974;42.664;23.264;2024-01-27T00:40:40;94810.50;;;3.31;61.22
77041;BME280;65974;42.664;23.264;2024-01-27T00:43:07;94811.44;;;3.27;60.81
77041;BME280;65974;42.664;23.264;2024-01-27T00:45:33;94819.34;;;3.27;61.50
77041;BME280;65974;42.664;23.264;2024-01-27T00:47:58;94808.09;;;3.17;61.25
77041;BME280;65974;42.664;23.264;2024-01-27T00:50:25;94822.03;;;3.18;61.29
77041;BME280;65974;42.664;23.264;2024-01-27T00:52:51;94814.19;;;3.30;60.71
77041;BME280;65974;42.664;23.264;2024-01-27T00:55:17;94816.22;;;3.33;60.63
77041;BME280;65974;42.664;23.264;2024-01-27T00:57:43;94813.31;;;3.26;60.69
77041;BME280;65974;42.664;23.264;2024-01-27T01:00:10;94807.84;;;3.31;60.52
77041;BME280;65974;42.664;23.264;2024-01-27T01:02:37;94799.06;;;3.27;60.42
77041;BME280;65974;42.664;23.264;2024-01-27T01:05:03;94809.72;;;3.31;60.77
77041;BME280;65974;42.664;23.264;2024-01-27T01:07:32;94801.53;;;3.32;59.71
77041;BME280;65974;42.664;23.264;2024-01-27T01:09:57;94798.66;;;3.37;59.80
77041;BME280;65974;42.664;23.264;2024-01-27T01:12:23;94796.94;;;3.41;59.44
77041;BME280;65974;42.664;23.264;2024-01-27T01:14:51;94804.53;;;3.43;59.80
77041;BME280;65974;42.664;23.264;2024-01-27T01:17:16;94810.09;;;3.41;60.57
77041;BME280;65974;42.664;23.264;2024-01-27T01:19:42;94813.63;;;3.45;58.97
77041;BME280;65974;42.664;23.264;2024-01-27T01:22:07;94802.50;;;3.60;58.48
77041;BME280;65974;42.664;23.264;2024-01-27T01:24:33;94796.84;;;3.70;58.31
77041;BME280;65974;42.664;23.264;2024-01-27T01:26:58;94792.75;;;3.73;57.14
77041;BME280;65974;42.664;23.264;2024-01-27T01:29:24;94798.16;;;3.76;57.05
77041;BME280;65974;42.664;23.264;2024-01-27T01:31:50;94795.09;;;3.74;56.17
77041;BME280;65974;42.664;23.264;2024-01-27T01:34:15;94782.47;;;3.80;56.84
77041;BME280;65974;42.664;23.264;2024-01-27T01:36:41;94773.94;;;3.83;57.37
77041;BME280;65974;42.664;23.264;2024-01-27T01:39:06;94770.19;;;3.84;56.60
77041;BME280;65974;42.664;23.264;2024-01-27T01:41:32;94781.41;;;3.81;57.91
77041;BME280;65974;42.664;23.264;2024-01-27T01:43:57;94782.38;;;3.76;57.97
77041;BME280;65974;42.664;23.264;2024-01-27T01:46:23;94764.81;;;3.80;58.07
77041;BME280;65974;42.664;23.264;2024-01-27T01:48:49;94753.41;;;3.76;59.81
77041;BME280;65974;42.664;23.264;2024-01-27T01:51:16;94766.22;;;3.78;58.51
77041;BME280;65974;42.664;23.264;2024-01-27T01:53:43;94751.56;;;3.89;56.44
77041;BME280;65974;42.664;23.264;2024-01-27T01:56:10;94756.19;;;4.04;56.61
77041;BME280;65974;42.664;23.264;2024-01-27T01:58:35;94759.47;;;4.01;57.09
77041;BME280;65974;42.664;23.264;2024-01-27T02:03:36;94769.94;;;3.77;59.03
77041;BME280;65974;42.664;23.264;2024-01-27T02:06:01;94751.19;;;3.78;57.34
77041;BME280;65974;42.664;23.264;2024-01-27T02:08:27;94758.34;;;3.90;57.63
77041;BME280;65974;42.664;23.264;2024-01-27T02:10:53;94744.63;;;3.84;57.49
77041;BME280;65974;42.664;23.264;2024-01-27T02:13:22;94738.28;;;3.98;54.02
77041;BME280;65974;42.664;23.264;2024-01-27T02:15:50;94725.75;;;3.82;59.21
77041;BME280;65974;42.664;23.264;2024-01-27T02:18:16;94725.06;;;3.73;59.72
77041;BME280;65974;42.664;23.264;2024-01-27T02:20:42;94729.41;;;4.02;53.56
77041;BME280;65974;42.664;23.264;2024-01-27T02:23:08;94732.66;;;3.99;56.95
77041;BME280;65974;42.664;23.264;2024-01-27T02:25:34;94739.16;;;3.89;57.89
77041;BME280;65974;42.664;23.264;2024-01-27T02:28:00;94730.13;;;3.90;59.15
77041;BME280;65974;42.664;23.264;2024-01-27T02:30:28;94722.13;;;3.87;59.61
77041;BME280;65974;42.664;23.264;2024-01-27T02:32:56;94716.53;;;4.01;57.35
77041;BME280;65974;42.664;23.264;2024-01-27T02:35:21;94718.41;;;4.12;55.33
77041;BME280;65974;42.664;23.264;2024-01-27T02:37:47;94712.69;;;4.10;56.80
77041;BME280;65974;42.664;23.264;2024-01-27T02:40:12;94730.47;;;4.13;56.62
77041;BME280;65974;42.664;23.264;2024-01-27T02:42:39;94718.06;;;4.14;55.74
77041;BME280;65974;42.664;23.264;2024-01-27T02:45:07;94715.78;;;4.24;53.19
77041;BME280;65974;42.664;23.264;2024-01-27T02:47:33;94722.69;;;4.41;51.74
77041;BME280;65974;42.664;23.264;2024-01-27T02:49:58;94716.97;;;4.39;52.41
77041;BME280;65974;42.664;23.264;2024-01-27T02:52:25;94724.44;;;4.37;54.42
77041;BME280;65974;42.664;23.264;2024-01-27T02:54:52;94730.81;;;4.48;52.62
77041;BME280;65974;42.664;23.264;2024-01-27T02:57:18;94720.25;;;4.60;53.42
77041;BME280;65974;42.664;23.264;2024-01-27T02:59:48;94724.78;;;4.35;55.54
77041;BME280;65974;42.664;23.264;2024-01-27T03:02:14;94728.50;;;4.22;56.84
77041;BME280;65974;42.664;23.264;2024-01-27T03:04:39;94726.84;;;4.18;56.86
77041;BME280;65974;42.664;23.264;2024-01-27T03:07:05;94733.56;;;4.27;57.17
77041;BME280;65974;42.664;23.264;2024-01-27T03:09:31;94747.97;;;4.42;57.25
77041;BME280;65974;42.664;23.264;2024-01-27T03:11:57;94752.34;;;4.38;57.59
77041;BME280;65974;42.664;23.264;2024-01-27T03:14:23;94749.28;;;4.48;58.03
77041;BME280;65974;42.664;23.264;2024-01-27T03:16:49;94749.50;;;4.55;58.27
77041;BME280;65974;42.664;23.264;2024-01-27T03:19:14;94759.47;;;4.49;59.98
77041;BME280;65974;42.664;23.264;2024-01-27T03:21:40;94752.78;;;4.52;59.36
77041;BME280;65974;42.664;23.264;2024-01-27T03:24:06;94764.66;;;4.46;60.39
77041;BME280;65974;42.664;23.264;2024-01-27T03:26:31;94754.56;;;4.36;62.66
77041;BME280;65974;42.664;23.264;2024-01-27T03:28:57;94753.44;;;4.25;63.01
77041;BME280;65974;42.664;23.264;2024-01-27T03:31:23;94753.56;;;4.16;63.97
77041;BME280;65974;42.664;23.264;2024-01-27T03:33:48;94744.31;;;4.10;65.91
77041;BME280;65974;42.664;23.264;2024-01-27T03:36:15;94747.06;;;4.14;68.30
77041;BME280;65974;42.664;23.264;2024-01-27T03:38:41;94744.66;;;4.09;67.94
77041;BME280;65974;42.664;23.264;2024-01-27T03:41:07;94734.66;;;4.02;67.73
77041;BME280;65974;42.664;23.264;2024-01-27T03:43:33;94736.63;;;4.05;69.82
77041;BME280;65974;42.664;23.264;2024-01-27T03:45:59;94723.25;;;3.98;70.61
77041;BME280;65974;42.664;23.264;2024-01-27T03:48:25;94730.03;;;3.99;71.13
77041;BME280;65974;42.664;23.264;2024-01-27T03:50:50;94717.63;;;3.87;70.77
77041;BME280;65974;42.664;23.264;2024-01-27T03:53:16;94711.00;;;3.69;71.24
77041;BME280;65974;42.664;23.264;2024-01-27T03:55:42;94713.28;;;3.59;71.53
77041;BME280;65974;42.664;23.264;2024-01-27T03:58:08;94716.47;;;3.52;72.44
77041;BME280;65974;42.664;23.264;2024-01-27T04:00:33;94715.47;;;3.45;73.72
77041;BME280;65974;42.664;23.264;2024-01-27T04:02:59;94721.34;;;3.30;75.48
77041;BME280;65974;42.664;23.264;2024-01-27T04:05:28;94718.28;;;3.07;75.97
77041;BME280;65974;42.664;23.264;2024-01-27T04:07:56;94716.22;;;2.92;77.38
77041;BME280;65974;42.664;23.264;2024-01-27T04:10:22;94723.63;;;2.78;78.08
77041;BME280;65974;42.664;23.264;2024-01-27T04:12:48;94721.38;;;2.68;79.39
77041;BME280;65974;42.664;23.264;2024-01-27T04:15:14;94707.16;;;3.22;79.91
77041;BME280;65974;42.664;23.264;2024-01-27T04:17:40;94699.50;;;2.76;79.29
77041;BME280;65974;42.664;23.264;2024-01-27T04:20:08;94706.03;;;2.70;80.28
77041;BME280;65974;42.664;23.264;2024-01-27T04:22:34;94705.78;;;2.63;80.34
77041;BME280;65974;42.664;23.264;2024-01-27T04:24:59;94709.75;;;2.69;80.64
77041;BME280;65974;42.664;23.264;2024-01-27T04:27:27;94709.44;;;2.91;80.46
77041;BME280;65974;42.664;23.264;2024-01-27T04:29:53;94708.53;;;2.87;79.91
77041;BME280;65974;42.664;23.264;2024-01-27T04:32:18;94704.50;;;2.89;80.19
77041;BME280;65974;42.664;23.264;2024-01-27T04:34:44;94705.25;;;3.10;80.45
77041;BME280;65974;42.664;23.264;2024-01-27T04:37:09;94724.91;;;3.13;79.85
77041;BME280;65974;42.664;23.264;2024-01-27T04:39:35;94719.03;;;3.07;80.78
77041;BME280;65974;42.664;23.264;2024-01-27T04:42:00;94715.78;;;2.90;80.75
77041;BME280;65974;42.664;23.264;2024-01-27T04:44:26;94712.41;;;2.89;81.84
77041;BME280;65974;42.664;23.264;2024-01-27T04:46:52;94725.16;;;2.79;82.28
77041;BME280;65974;42.664;23.264;2024-01-27T04:49:18;94715.53;;;2.83;83.08
77041;BME280;65974;42.664;23.264;2024-01-27T04:51:43;94714.78;;;2.82;84.02
77041;BME280;65974;42.664;23.264;2024-01-27T04:54:09;94726.13;;;2.74;83.42
77041;BME280;65974;42.664;23.264;2024-01-27T04:56:35;94725.09;;;2.87;83.90
77041;BME280;65974;42.664;23.264;2024-01-27T04:59:01;94720.81;;;2.83;84.48
77041;BME280;65974;42.664;23.264;2024-01-27T05:01:26;94717.81;;;3.05;84.43
77041;BME280;65974;42.664;23.264;2024-01-27T05:03:53;94730.31;;;2.96;84.21
77041;BME280;65974;42.664;23.264;2024-01-27T05:06:18;94737.16;;;2.88;84.43
77041;BME280;65974;42.664;23.264;2024-01-27T05:08:44;94733.75;;;2.88;85.24
77041;BME280;65974;42.664;23.264;2024-01-27T05:11:09;94742.84;;;2.90;85.21
77041;BME280;65974;42.664;23.264;2024-01-27T05:13:35;94736.19;;;2.93;86.04
77041;BME280;65974;42.664;23.264;2024-01-27T05:16:04;94739.00;;;2.88;87.00
77041;BME280;65974;42.664;23.264;2024-01-27T05:18:29;94742.59;;;2.83;86.89
77041;BME280;65974;42.664;23.264;2024-01-27T05:20:55;94742.41;;;2.88;87.72
77041;BME280;65974;42.664;23.264;2024-01-27T05:23:20;94744.09;;;2.93;87.81
77041;BME280;65974;42.664;23.264;2024-01-27T05:25:46;94738.38;;;2.91;88.32
77041;BME280;65974;42.664;23.264;2024-01-27T05:28:11;94734.19;;;2.90;88.87
77041;BME280;65974;42.664;23.264;2024-01-27T05:30:37;94744.53;;;2.95;90.22
77041;BME280;65974;42.664;23.264;2024-01-27T05:33:02;94734.91;;;2.99;89.32
77041;BME280;65974;42.664;23.264;2024-01-27T05:35:29;94735.59;;;3.08;89.41
77041;BME280;65974;42.664;23.264;2024-01-27T05:37:55;94743.75;;;3.15;89.00
77041;BME280;65974;42.664;23.264;2024-01-27T05:40:20;94747.28;;;3.19;88.66
77041;BME280;65974;42.664;23.264;2024-01-27T05:42:47;94736.69;;;3.28;88.55
77041;BME280;65974;42.664;23.264;2024-01-27T05:45:14;94745.91;;;3.34;88.20
77041;BME280;65974;42.664;23.264;2024-01-27T05:47:40;94739.03;;;3.41;88.07
77041;BME280;65974;42.664;23.264;2024-01-27T05:50:06;94747.06;;;3.45;88.02
77041;BME280;65974;42.664;23.264;2024-01-27T05:52:33;94737.69;;;3.35;87.46
77041;BME280;65974;42.664;23.264;2024-01-27T05:54:59;94753.72;;;3.42;88.14
77041;BME280;65974;42.664;23.264;2024-01-27T05:57:24;94751.91;;;3.55;87.37
77041;BME280;65974;42.664;23.264;2024-01-27T05:59:50;94757.78;;;3.72;87.23
77041;BME280;65974;42.664;23.264;2024-01-27T06:02:15;94756.75;;;3.65;87.26
77041;BME280;65974;42.664;23.264;2024-01-27T06:04:43;94761.91;;;3.61;87.45
77041;BME280;65974;42.664;23.264;2024-01-27T06:07:08;94758.22;;;3.74;87.38
77041;BME280;65974;42.664;23.264;2024-01-27T06:09:34;94774.16;;;3.90;86.67
77041;BME280;65974;42.664;23.264;2024-01-27T06:11:59;94774.59;;;3.92;86.18
77041;BME280;65974;42.664;23.264;2024-01-27T06:14:25;94787.75;;;3.92;86.29
77041;BME280;65974;42.664;23.264;2024-01-27T06:16:51;94775.03;;;3.94;85.71
77041;BME280;65974;42.664;23.264;2024-01-27T06:19:16;94786.13;;;3.87;86.38
77041;BME280;65974;42.664;23.264;2024-01-27T06:21:42;94776.69;;;3.99;86.01
77041;BME280;65974;42.664;23.264;2024-01-27T06:24:07;94784.63;;;4.11;85.10
77041;BME280;65974;42.664;23.264;2024-01-27T06:26:33;94785.28;;;4.20;85.32
77041;BME280;65974;42.664;23.264;2024-01-27T06:28:58;94801.09;;;4.20;84.68
77041;BME280;65974;42.664;23.264;2024-01-27T06:31:25;94809.88;;;4.12;85.61
77041;BME280;65974;42.664;23.264;2024-01-27T06:33:51;94819.97;;;4.10;85.56
77041;BME280;65974;42.664;23.264;2024-01-27T06:36:16;94812.31;;;4.17;85.12
77041;BME280;65974;42.664;23.264;2024-01-27T06:38:41;94827.16;;;4.21;84.37
77041;BME280;65974;42.664;23.264;2024-01-27T06:41:07;94826.91;;;4.26;84.11
77041;BME280;65974;42.664;23.264;2024-01-27T06:43:33;94837.16;;;4.28;83.84
77041;BME280;65974;42.664;23.264;2024-01-27T06:45:59;94827.91;;;4.22;83.94
77041;BME280;65974;42.664;23.264;2024-01-27T06:48:24;94826.91;;;4.14;84.03
77041;BME280;65974;42.664;23.264;2024-01-27T06:50:53;94839.53;;;4.09;84.41
77041;BME280;65974;42.664;23.264;2024-01-27T06:53:19;94831.94;;;4.07;84.00
77041;BME280;65974;42.664;23.264;2024-01-27T06:55:45;94835.91;;;4.13;83.41
77041;BME280;65974;42.664;23.264;2024-01-27T06:58:10;94847.88;;;4.11;83.05
77041;BME280;65974;42.664;23.264;2024-01-27T07:00:36;94842.09;;;4.17;82.34
77041;BME280;65974;42.664;23.264;2024-01-27T07:03:01;94845.69;;;4.13;83.30
77041;BME280;65974;42.664;23.264;2024-01-27T07:05:28;94827.69;;;4.15;82.01
77041;BME280;65974;42.664;23.264;2024-01-27T07:07:53;94836.28;;;4.24;81.29
77041;BME280;65974;42.664;23.264;2024-01-27T07:10:19;94831.56;;;4.29;80.41
77041;BME280;65974;42.664;23.264;2024-01-27T07:12:45;94830.56;;;4.34;79.51
77041;BME280;65974;42.664;23.264;2024-01-27T07:15:11;94837.38;;;4.35;79.91
77041;BME280;65974;42.664;23.264;2024-01-27T07:17:37;94838.47;;;4.34;80.43
77041;BME280;65974;42.664;23.264;2024-01-27T07:20:03;94837.91;;;4.28;80.19
77041;BME280;65974;42.664;23.264;2024-01-27T07:22:28;94852.84;;;4.24;80.52
77041;BME280;65974;42.664;23.264;2024-01-27T07:24:54;94861.31;;;4.30;80.13
77041;BME280;65974;42.664;23.264;2024-01-27T07:27:21;94858.34;;;4.31;78.63
77041;BME280;65974;42.664;23.264;2024-01-27T07:29:47;94868.78;;;4.28;76.67
77041;BME280;65974;42.664;23.264;2024-01-27T07:32:14;94877.38;;;4.37;76.42
77041;BME280;65974;42.664;23.264;2024-01-27T07:34:43;94896.50;;;4.34;75.84
77041;BME280;65974;42.664;23.264;2024-01-27T07:37:09;94920.84;;;4.31;75.42
77041;BME280;65974;42.664;23.264;2024-01-27T07:39:35;94934.25;;;4.26;75.37
77041;BME280;65974;42.664;23.264;2024-01-27T07:42:01;94943.44;;;4.20;74.77
77041;BME280;65974;42.664;23.264;2024-01-27T07:44:27;94926.88;;;4.19;74.73
77041;BME280;65974;42.664;23.264;2024-01-27T07:46:53;94949.81;;;4.19;74.34
77041;BME280;65974;42.664;23.264;2024-01-27T07:49:18;94959.47;;;4.15;74.02
77041;BME280;65974;42.664;23.264;2024-01-27T07:51:44;94965.38;;;4.12;73.82
77041;BME280;65974;42.664;23.264;2024-01-27T07:54:11;94965.53;;;4.15;74.73
77041;BME280;65974;42.664;23.264;2024-01-27T07:56:38;94972.31;;;4.16;75.56
77041;BME280;65974;42.664;23.264;2024-01-27T07:59:03;94963.06;;;4.10;74.48
77041;BME280;65974;42.664;23.264;2024-01-27T08:01:29;94952.41;;;4.07;74.28
77041;BME280;65974;42.664;23.264;2024-01-27T08:03:54;94947.16;;;4.07;74.86
77041;BME280;65974;42.664;23.264;2024-01-27T08:06:28;94960.19;;;4.03;74.42
77041;BME280;65974;42.664;23.264;2024-01-27T08:08:56;94959.53;;;4.06;74.01
77041;BME280;65974;42.664;23.264;2024-01-27T08:11:21;94961.84;;;4.08;73.48
77041;BME280;65974;42.664;23.264;2024-01-27T08:13:47;94977.91;;;4.15;73.81
77041;BME280;65974;42.664;23.264;2024-01-27T08:16:13;94977.53;;;4.25;73.61
77041;BME280;65974;42.664;23.264;2024-01-27T08:18:40;94982.47;;;4.26;71.66
77041;BME280;65974;42.664;23.264;2024-01-27T08:21:08;94957.31;;;4.29;71.37
77041;BME280;65974;42.664;23.264;2024-01-27T08:23:34;94945.03;;;4.33;70.92
77041;BME280;65974;42.664;23.264;2024-01-27T08:26:00;94947.81;;;4.36;70.16
77041;BME280;65974;42.664;23.264;2024-01-27T08:28:25;94959.53;;;4.39;69.77
77041;BME280;65974;42.664;23.264;2024-01-27T08:30:51;94960.66;;;4.38;69.79
77041;BME280;65974;42.664;23.264;2024-01-27T08:33:16;94960.47;;;4.43;69.49
77041;BME280;65974;42.664;23.264;2024-01-27T08:35:42;94965.72;;;4.43;69.96
77041;BME280;65974;42.664;23.264;2024-01-27T08:38:07;94920.31;;;4.37;70.45
77041;BME280;65974;42.664;23.264;2024-01-27T08:40:34;94959.25;;;4.40;71.23
77041;BME280;65974;42.664;23.264;2024-01-27T08:43:02;94971.75;;;4.43;70.68
77041;BME280;65974;42.664;23.264;2024-01-27T08:45:27;94956.38;;;4.45;70.24
77041;BME280;65974;42.664;23.264;2024-01-27T08:47:53;94926.50;;;4.41;70.41
77041;BME280;65974;42.664;23.264;2024-01-27T08:50:18;94949.50;;;4.65;69.73
77041;BME280;65974;42.664;23.264;2024-01-27T08:52:44;94949.41;;;4.73;69.72
77041;BME280;65974;42.664;23.264;2024-01-27T08:55:11;94967.44;;;4.71;69.36
77041;BME280;65974;42.664;23.264;2024-01-27T08:57:36;94950.97;;;4.75;69.01
77041;BME280;65974;42.664;23.264;2024-01-27T09:00:02;94952.97;;;4.90;68.98
77041;BME280;65974;42.664;23.264;2024-01-27T09:02:28;94940.56;;;5.02;68.21
77041;BME280;65974;42.664;23.264;2024-01-27T09:04:55;94960.34;;;5.20;68.46
77041;BME280;65974;42.664;23.264;2024-01-27T09:07:23;94952.75;;;5.19;67.98
77041;BME280;65974;42.664;23.264;2024-01-27T09:09:49;94953.31;;;5.00;67.84
77041;BME280;65974;42.664;23.264;2024-01-27T09:12:14;94980.13;;;4.90;68.04
77041;BME280;65974;42.664;23.264;2024-01-27T09:14:41;94968.69;;;4.86;68.95
77041;BME280;65974;42.664;23.264;2024-01-27T09:17:06;94968.22;;;4.84;69.23
77041;BME280;65974;42.664;23.264;2024-01-27T09:19:32;94964.91;;;4.75;68.62
77041;BME280;65974;42.664;23.264;2024-01-27T09:21:58;94960.66;;;4.70;69.31
77041;BME280;65974;42.664;23.264;2024-01-27T09:24:23;94960.56;;;4.79;69.46
77041;BME280;65974;42.664;23.264;2024-01-27T09:26:49;94946.00;;;4.73;69.31
77041;BME280;65974;42.664;23.264;2024-01-27T09:29:14;94955.56;;;4.78;68.61
77041;BME280;65974;42.664;23.264;2024-01-27T09:31:40;94949.56;;;5.01;68.47
77041;BME280;65974;42.664;23.264;2024-01-27T09:34:05;94931.88;;;5.26;68.03
77041;BME280;65974;42.664;23.264;2024-01-27T09:36:31;94931.19;;;5.29;66.99
77041;BME280;65974;42.664;23.264;2024-01-27T09:38:56;94924.72;;;5.14;67.68
77041;BME280;65974;42.664;23.264;2024-01-27T09:41:22;94912.03;;;5.20;67.74
77041;BME280;65974;42.664;23.264;2024-01-27T09:43:48;94917.31;;;5.20;67.50
77041;BME280;65974;42.664;23.264;2024-01-27T09:46:15;94913.28;;;5.10;68.84
77041;BME280;65974;42.664;23.264;2024-01-27T09:48:41;94922.06;;;4.90;69.32
77041;BME280;65974;42.664;23.264;2024-01-27T09:51:08;94934.72;;;4.85;68.83
77041;BME280;65974;42.664;23.264;2024-01-27T09:53:34;94939.44;;;4.79;68.96
77041;BME280;65974;42.664;23.264;2024-01-27T09:56:01;94948.72;;;4.64;70.00
77041;BME280;65974;42.664;23.264;2024-01-27T09:58:31;94968.75;;;4.65;69.77
77041;BME280;65974;42.664;23.264;2024-01-27T10:00:59;94982.66;;;4.54;70.02
77041;BME280;65974;42.664;23.264;2024-01-27T10:03:26;94995.56;;;4.55;70.83
77041;BME280;65974;42.664;23.264;2024-01-27T10:05:53;94974.97;;;4.49;70.53
77041;BME280;65974;42.664;23.264;2024-01-27T10:08:23;94975.50;;;4.42;70.44
77041;BME280;65974;42.664;23.264;2024-01-27T10:10:55;94984.50;;;4.41;71.22
77041;BME280;65974;42.664;23.264;2024-01-27T10:13:24;94988.09;;;4.37;70.84
77041;BME280;65974;42.664;23.264;2024-01-27T10:16:02;95002.06;;;4.37;71.52
77041;BME280;65974;42.664;23.264;2024-01-27T10:18:30;94994.03;;;4.34;71.20
77041;BME280;65974;42.664;23.264;2024-01-27T10:20:56;94996.75;;;4.25;71.00
77041;BME280;65974;42.664;23.264;2024-01-27T10:23:22;94991.03;;;4.23;71.40
77041;BME280;65974;42.664;23.264;2024-01-27T10:25:47;94992.25;;;4.26;71.96
77041;BME280;65974;42.664;23.264;2024-01-27T10:28:13;95013.66;;;4.24;71.84
77041;BME280;65974;42.664;23.264;2024-01-27T10:30:38;95003.50;;;4.14;71.42
77041;BME280;65974;42.664;23.264;2024-01-27T10:33:04;95015.28;;;4.17;71.85
77041;BME280;65974;42.664;23.264;2024-01-27T10:35:30;95021.63;;;4.16;71.58
77041;BME280;65974;42.664;23.264;2024-01-27T10:37:56;95040.28;;;4.11;71.60
77041;BME280;65974;42.664;23.264;2024-01-27T10:40:22;95032.38;;;4.11;71.52
77041;BME280;65974;42.664;23.264;2024-01-27T10:43:08;95026.00;;;4.12;72.04
77041;BME280;65974;42.664;23.264;2024-01-27T10:45:41;95038.91;;;4.05;72.19
77041;BME280;65974;42.664;23.264;2024-01-27T10:48:08;95021.91;;;4.02;71.84
77041;BME280;65974;42.664;23.264;2024-01-27T10:50:38;95047.59;;;4.05;72.08
77041;BME280;65974;42.664;23.264;2024-01-27T10:53:07;95045.09;;;4.09;72.08
77041;BME280;65974;42.664;23.264;2024-01-27T10:55:34;95041.47;;;4.13;71.76
77041;BME280;65974;42.664;23.264;2024-01-27T10:58:03;95045.22;;;4.12;72.84
77041;BME280;65974;42.664;23.264;2024-01-27T11:00:32;95035.31;;;4.09;72.38
77041;BME280;65974;42.664;23.264;2024-01-27T11:02:59;95041.41;;;4.01;72.66
77041;BME280;65974;42.664;23.264;2024-01-27T11:05:27;95049.84;;;3.94;73.10
77041;BME280;65974;42.664;23.264;2024-01-27T11:07:54;95043.66;;;3.90;73.20
77041;BME280;65974;42.664;23.264;2024-01-27T11:10:20;95026.78;;;3.91;73.06
77041;BME280;65974;42.664;23.264;2024-01-27T11:12:47;95028.50;;;3.87;73.50
77041;BME280;65974;42.664;23.264;2024-01-27T11:15:13;95037.16;;;3.88;73.23
77041;BME280;65974;42.664;23.264;2024-01-27T11:17:40;95033.31;;;3.85;73.11
77041;BME280;65974;42.664;23.264;2024-01-27T11:20:08;95017.19;;;3.87;73.58
77041;BME280;65974;42.664;23.264;2024-01-27T11:22:34;95037.94;;;3.88;73.70
77041;BME280;65974;42.664;23.264;2024-01-27T11:27:31;95037.03;;;3.84;74.54
77041;BME280;65974;42.664;23.264;2024-01-27T11:29:57;95044.81;;;3.81;74.71
77041;BME280;65974;42.664;23.264;2024-01-27T11:32:26;95026.88;;;3.74;74.82
77041;BME280;65974;42.664;23.264;2024-01-27T11:34:53;95044.63;;;3.86;74.22
77041;BME280;65974;42.664;23.264;2024-01-27T11:37:18;95048.66;;;3.83;74.60
77041;BME280;65974;42.664;23.264;2024-01-27T11:39:51;95040.75;;;3.83;73.82
77041;BME280;65974;42.664;23.264;2024-01-27T11:42:18;95039.56;;;3.81;74.43
77041;BME280;65974;42.664;23.264;2024-01-27T11:44:44;95046.69;;;3.80;74.07
77041;BME280;65974;42.664;23.264;2024-01-27T11:47:15;95051.00;;;3.85;73.04
77041;BME280;65974;42.664;23.264;2024-01-27T11:49:42;95045.56;;;3.81;73.12
77041;BME280;65974;42.664;23.264;2024-01-27T11:52:07;95050.34;;;3.88;73.13
77041;BME280;65974;42.664;23.264;2024-01-27T11:54:33;95049.84;;;3.94;73.19
77041;BME280;65974;42.664;23.264;2024-01-27T11:56:58;95048.56;;;4.01;72.51
77041;BME280;65974;42.664;23.264;2024-01-27T11:59:24;95048.81;;;4.08;73.30
77041;BME280;65974;42.664;23.264;2024-01-27T12:01:50;95075.19;;;4.08;72.17
77041;BME280;65974;42.664;23.264;2024-01-27T12:04:15;95057.56;;;4.00;72.07
77041;BME280;65974;42.664;23.264;2024-01-27T12:06:43;95046.56;;;3.98;71.69
77041;BME280;65974;42.664;23.264;2024-01-27T12:09:09;95074.16;;;4.00;71.21
77041;BME280;65974;42.664;23.264;2024-01-27T12:11:40;95067.00;;;4.01;70.58
77041;BME280;65974;42.664;23.264;2024-01-27T12:14:06;95074.53;;;4.11;70.78
77041;BME280;65974;42.664;23.264;2024-01-27T12:16:31;95075.91;;;4.17;71.21
77041;BME280;65974;42.664;23.264;2024-01-27T12:18:57;95073.59;;;4.15;70.68
77041;BME280;65974;42.664;23.264;2024-01-27T12:21:22;95081.75;;;4.22;69.83
77041;BME280;65974;42.664;23.264;2024-01-27T12:24:15;95071.34;;;4.26;69.20
77041;BME280;65974;42.664;23.264;2024-01-27T12:26:40;95072.47;;;4.37;69.43
77041;BME280;65974;42.664;23.264;2024-01-27T12:29:07;95075.19;;;4.28;69.18
77041;BME280;65974;42.664;23.264;2024-01-27T12:31:32;95072.41;;;4.25;68.72
77041;BME280;65974;42.664;23.264;2024-01-27T12:33:58;95074.16;;;4.21;69.26
77041;BME280;65974;42.664;23.264;2024-01-27T12:36:26;95059.13;;;4.21;68.45
77041;BME280;65974;42.664;23.264;2024-01-27T12:39:15;95071.97;;;4.23;69.00
77041;BME280;65974;42.664;23.264;2024-01-27T12:41:40;95075.19;;;4.28;69.30
77041;BME280;65974;42.664;23.264;2024-01-27T12:44:06;95078.25;;;4.30;68.84
77041;BME280;65974;42.664;23.264;2024-01-27T12:46:31;95060.91;;;4.09;68.92
77041;BME280;65974;42.664;23.264;2024-01-27T12:48:57;95066.38;;;4.04;69.91
77041;BME280;65974;42.664;23.264;2024-01-27T12:51:22;95083.13;;;3.99;69.52
77041;BME280;65974;42.664;23.264;2024-01-27T12:53:49;95082.69;;;3.97;69.34
77041;BME280;65974;42.664;23.264;2024-01-27T12:56:15;95082.63;;;4.06;69.40
77041;BME280;65974;42.664;23.264;2024-01-27T12:58:41;95089.13;;;4.29;68.99
77041;BME280;65974;42.664;23.264;2024-01-27T13:01:08;95083.66;;;4.13;68.72